createdAt,value
2022-10-06T00:01:09.714Z,100846.66
2022-10-06T00:03:39.411Z,100849.47
2022-10-06T00:06:08.625Z,100844.94
2022-10-06T00:08:39.255Z,100829.38
2022-10-06T00:11:09.382Z,100819.75
2022-10-06T00:13:37.872Z,100811.78
2022-10-06T00:16:11.816Z,100805.44
2022-10-06T00:18:40.590Z,100815.75
2022-10-06T00:21:09.175Z,100829.50
2022-10-06T00:23:38.058Z,100846.06
2022-10-06T00:26:07.466Z,100849.91
2022-10-06T00:28:35.970Z,100857.44
2022-10-06T00:31:04.477Z,100864.22
2022-10-06T00:33:34.879Z,100873.84
2022-10-06T00:36:03.354Z,100884.47
2022-10-06T00:38:32.441Z,100882.78
2022-10-06T00:41:01.781Z,100888.44
2022-10-06T00:43:46.313Z,100892.00
2022-10-06T00:46:21.269Z,100894.53
2022-10-06T00:48:56.707Z,100886.75
2022-10-06T00:51:25.589Z,100891.44
2022-10-06T00:53:54.483Z,100896.22
2022-10-06T00:56:22.970Z,100894.53
2022-10-06T00:58:52.110Z,100894.37
2022-10-06T01:01:20.917Z,100887.50
2022-10-06T01:03:56.745Z,100892.59
2022-10-06T01:06:25.648Z,100896.00
2022-10-06T01:08:54.615Z,100892.03
2022-10-06T01:11:23.103Z,100888.19
2022-10-06T01:13:51.998Z,100888.03
2022-10-06T01:16:24.428Z,100890.03
2022-10-06T01:18:56.746Z,100883.38
2022-10-06T01:21:30.763Z,100882.09
2022-10-06T01:24:02.828Z,100882.62
2022-10-06T01:26:33.662Z,100888.59
2022-10-06T01:29:02.784Z,100877.81
2022-10-06T01:31:31.892Z,100879.38
2022-10-06T01:34:00.959Z,100871.28
2022-10-06T01:36:30.188Z,100874.13
2022-10-06T01:39:00.091Z,100882.19
2022-10-06T01:41:30.531Z,100892.97
2022-10-06T01:43:59.447Z,100898.63
2022-10-06T01:46:30.515Z,100900.72
2022-10-06T01:48:59.382Z,100903.56
2022-10-06T01:51:28.050Z,100895.91
2022-10-06T01:53:56.429Z,100887.16
2022-10-06T01:56:26.660Z,100899.59
2022-10-06T01:58:55.209Z,100902.41
2022-10-06T02:01:23.976Z,100892.09
2022-10-06T02:03:55.497Z,100900.88
2022-10-06T02:06:24.360Z,100897.03
2022-10-06T02:08:53.405Z,100900.47
2022-10-06T02:11:21.789Z,100904.56
2022-10-06T02:13:52.056Z,100905.28
2022-10-06T02:16:21.271Z,100911.97
2022-10-06T02:18:49.792Z,100917.19
2022-10-06T02:21:23.503Z,100917.59
2022-10-06T02:23:51.935Z,100929.38
2022-10-06T02:26:20.976Z,100931.81
2022-10-06T02:28:51.272Z,100927.81
2022-10-06T02:31:20.780Z,100938.06
2022-10-06T02:33:49.517Z,100942.69
2022-10-06T02:36:18.530Z,100945.13
2022-10-06T02:38:47.204Z,100954.91
2022-10-06T02:41:16.205Z,100956.59
2022-10-06T02:43:44.894Z,100960.44
2022-10-06T02:46:15.323Z,100965.38
2022-10-06T02:48:45.874Z,100969.91
2022-10-06T02:51:17.121Z,100975.28
2022-10-06T02:53:47.549Z,100971.91
2022-10-06T02:56:18.228Z,100978.41
2022-10-06T02:58:49.015Z,100979.53
2022-10-06T03:01:21.978Z,100979.81
2022-10-06T03:03:51.926Z,100976.25
2022-10-06T03:06:24.515Z,100987.88
2022-10-06T03:08:55.804Z,100994.25
2022-10-06T03:11:25.771Z,100993.53
2022-10-06T03:13:55.901Z,101013.91
2022-10-06T03:16:28.326Z,101016.59
2022-10-06T03:18:59.822Z,101016.19
2022-10-06T03:21:30.814Z,101023.13
2022-10-06T03:24:00.693Z,101027.97
2022-10-06T03:26:31.473Z,101032.50
2022-10-06T03:29:00.836Z,101038.19
2022-10-06T03:31:31.571Z,101042.31
2022-10-06T03:34:00.369Z,101056.50
2022-10-06T03:36:32.438Z,101057.63
2022-10-06T03:39:02.797Z,101060.28
2022-10-06T03:41:33.608Z,101068.91
2022-10-06T03:44:03.215Z,101079.56
2022-10-06T03:46:35.621Z,101143.47
2022-10-06T03:49:05.312Z,101138.31
2022-10-06T03:51:35.760Z,101147.69
2022-10-06T03:54:05.258Z,101155.50
2022-10-06T03:56:35.888Z,101150.66
2022-10-06T03:59:07.247Z,101147.38
2022-10-06T04:01:39.468Z,101158.81
2022-10-06T04:04:09.430Z,101160.75
2022-10-06T04:06:39.437Z,101158.66
2022-10-06T04:09:14.987Z,101170.16
2022-10-06T04:11:45.956Z,101169.44
2022-10-06T04:14:16.079Z,101173.81
2022-10-06T04:16:47.455Z,101170.78
2022-10-06T04:19:17.651Z,101183.44
2022-10-06T04:21:48.193Z,101191.78
2022-10-06T04:24:18.659Z,101194.78
2022-10-06T04:26:49.013Z,101194.47
2022-10-06T04:29:18.550Z,101208.59
2022-10-06T04:31:50.633Z,101204.97
2022-10-06T04:34:19.562Z,101211.69
2022-10-06T04:36:47.897Z,101215.41
2022-10-06T04:39:17.000Z,101227.41
2022-10-06T04:41:47.397Z,101219.16
2022-10-06T04:44:16.324Z,101225.25
2022-10-06T04:46:45.771Z,101244.31
2022-10-06T04:49:20.642Z,101257.50
2022-10-06T04:51:50.075Z,101261.56
2022-10-06T04:54:19.724Z,101265.00
2022-10-06T04:56:48.423Z,101286.88
2022-10-06T04:59:17.274Z,101286.91
2022-10-06T05:01:46.102Z,101293.50
2022-10-06T05:04:16.123Z,101289.72
2022-10-06T05:06:44.601Z,101300.22
2022-10-06T05:09:15.733Z,101300.00
2022-10-06T05:11:44.719Z,101287.41
2022-10-06T05:14:13.497Z,101278.88
2022-10-06T05:16:43.167Z,101288.88
2022-10-06T05:19:12.068Z,101304.44
2022-10-06T05:21:42.193Z,101309.16
2022-10-06T05:24:10.647Z,101317.47
2022-10-06T05:26:39.632Z,101324.22
2022-10-06T05:29:09.233Z,101332.28
2022-10-06T05:31:40.402Z,101346.78
2022-10-06T05:34:09.307Z,101340.56
2022-10-06T05:36:37.829Z,101355.59
2022-10-06T05:39:11.168Z,101363.66
2022-10-06T05:41:40.690Z,101372.34
2022-10-06T05:44:10.724Z,101369.53
2022-10-06T05:46:39.650Z,101362.69
2022-10-06T05:49:10.484Z,101370.84
2022-10-06T05:51:40.184Z,101380.03
2022-10-06T05:54:10.494Z,101387.34
2022-10-06T05:56:39.980Z,101385.16
2022-10-06T05:59:08.691Z,101390.28
2022-10-06T06:01:39.972Z,101392.59
2022-10-06T06:04:11.390Z,101394.22
2022-10-06T06:06:42.746Z,101397.88
2022-10-06T06:09:15.025Z,101411.53
2022-10-06T06:11:45.540Z,101414.72
2022-10-06T06:14:16.790Z,101428.66
2022-10-06T06:16:45.354Z,101431.84
2022-10-06T06:19:15.399Z,101430.13
2022-10-06T06:21:44.133Z,101438.19
2022-10-06T06:24:13.930Z,101438.94
2022-10-06T06:26:42.665Z,101444.81
2022-10-06T06:29:10.933Z,101444.47
2022-10-06T06:31:43.856Z,101454.37
2022-10-06T06:34:12.665Z,101459.88
2022-10-06T06:36:46.896Z,101466.56
2022-10-06T06:39:19.995Z,101477.56
2022-10-06T06:41:49.097Z,101488.19
2022-10-06T06:44:19.740Z,101493.81
2022-10-06T06:46:50.419Z,101503.53
2022-10-06T06:49:20.669Z,101500.38
2022-10-06T06:51:51.214Z,101505.63
2022-10-06T06:54:21.650Z,101515.91
2022-10-06T06:56:51.975Z,101518.63
2022-10-06T06:59:20.878Z,101532.78
2022-10-06T07:01:49.560Z,101530.41
2022-10-06T07:04:18.912Z,101544.09
2022-10-06T07:06:57.131Z,101558.16
2022-10-06T07:09:27.904Z,101552.03
2022-10-06T07:11:57.211Z,101553.75
2022-10-06T07:14:25.903Z,101565.84
2022-10-06T07:17:11.796Z,101579.81
2022-10-06T07:19:58.627Z,101569.16
2022-10-06T07:22:47.658Z,101578.69
2022-10-06T07:25:26.037Z,101576.06
2022-10-06T07:27:56.202Z,101575.03
2022-10-06T07:30:27.947Z,101579.56
2022-10-06T07:32:57.049Z,101586.19
2022-10-06T07:35:26.561Z,101583.91
2022-10-06T07:37:55.354Z,101587.81
2022-10-06T07:40:25.269Z,101593.88
2022-10-06T07:42:53.956Z,101598.28
2022-10-06T07:45:42.243Z,101612.75
2022-10-06T07:48:14.826Z,101621.09
2022-10-06T07:50:44.286Z,101624.25
2022-10-06T07:53:13.692Z,101636.16
2022-10-06T07:58:17.415Z,101637.66
2022-10-06T08:00:46.729Z,101639.69
2022-10-06T08:03:18.212Z,101644.13
2022-10-06T08:05:47.589Z,101645.84
2022-10-06T08:08:16.893Z,101643.41
2022-10-06T08:10:54.295Z,101643.06
2022-10-06T08:13:23.907Z,101651.38
2022-10-06T08:15:54.926Z,101658.13
2022-10-06T08:18:45.354Z,101657.13
2022-10-06T08:21:16.056Z,101660.69
2022-10-06T08:23:45.714Z,101667.00
2022-10-06T08:26:17.145Z,101664.94
2022-10-06T08:28:47.978Z,101672.50
2022-10-06T08:31:17.808Z,101680.22
2022-10-06T08:33:47.188Z,101684.56
2022-10-06T08:36:18.622Z,101687.78
2022-10-06T08:38:50.484Z,101695.16
2022-10-06T08:41:23.900Z,101692.44
2022-10-06T08:43:59.272Z,101698.63
2022-10-06T08:46:36.845Z,101696.16
2022-10-06T08:49:06.986Z,101695.94
2022-10-06T08:51:50.633Z,101706.22
2022-10-06T08:54:29.997Z,101710.19
2022-10-06T08:57:06.738Z,101709.16
2022-10-06T08:59:37.061Z,101707.28
2022-10-06T09:02:21.560Z,101717.50
2022-10-06T09:04:51.005Z,101720.28
2022-10-06T09:07:26.745Z,101718.94
2022-10-06T09:10:16.641Z,101725.91
2022-10-06T09:12:52.443Z,101716.38
2022-10-06T09:15:31.507Z,101717.09
2022-10-06T09:18:10.813Z,101721.37
2022-10-06T09:20:47.330Z,101730.81
2022-10-06T09:23:38.116Z,101738.72
2022-10-06T09:26:12.020Z,101733.94
2022-10-06T09:28:42.697Z,101745.00
2022-10-06T09:31:21.906Z,101746.34
2022-10-06T09:33:53.750Z,101754.69
2022-10-06T09:36:24.219Z,101754.25
2022-10-06T09:38:55.275Z,101750.28
2022-10-06T09:41:28.308Z,101749.06
2022-10-06T09:44:00.793Z,101755.53
2022-10-06T09:46:33.179Z,101751.53
2022-10-06T09:49:16.712Z,101760.34
2022-10-06T09:52:02.264Z,101769.06
2022-10-06T09:54:31.375Z,101766.81
2022-10-06T09:57:08.254Z,101765.47
2022-10-06T09:59:42.260Z,101764.19
2022-10-06T10:02:33.749Z,101771.06
2022-10-06T10:05:02.666Z,101778.91
2022-10-06T10:07:31.860Z,101783.16
2022-10-06T10:10:21.337Z,101780.38
2022-10-06T10:12:54.121Z,101780.50
2022-10-06T10:15:31.799Z,101776.75
2022-10-06T10:18:03.972Z,101782.41
2022-10-06T10:20:36.672Z,101784.88
2022-10-06T10:23:18.280Z,101778.34
2022-10-06T10:26:09.670Z,101780.31
2022-10-06T10:29:04.274Z,101769.88
2022-10-06T10:31:43.665Z,101774.12
2022-10-06T10:34:40.316Z,101785.69
2022-10-06T10:37:13.305Z,101785.06
2022-10-06T10:39:45.374Z,101789.06
2022-10-06T10:42:19.936Z,101784.47
2022-10-06T10:44:53.822Z,101781.03
2022-10-06T10:47:28.055Z,101781.41
2022-10-06T10:50:05.859Z,101771.31
2022-10-06T10:52:41.478Z,101787.84
2022-10-06T10:55:21.833Z,101790.22
2022-10-06T10:57:52.058Z,101791.66
2022-10-06T11:00:23.107Z,101800.00
2022-10-06T11:02:55.007Z,101793.03
2022-10-06T11:05:37.595Z,101794.78
2022-10-06T11:08:14.959Z,101797.69
2022-10-06T11:10:50.117Z,101802.69
2022-10-06T11:13:28.230Z,101805.03
2022-10-06T11:16:17.051Z,101805.75
2022-10-06T11:19:03.058Z,101805.34
2022-10-06T11:21:37.621Z,101811.03
2022-10-06T11:24:15.628Z,101803.63
2022-10-06T11:27:07.921Z,101814.03
2022-10-06T11:29:44.699Z,101808.34
2022-10-06T11:32:24.573Z,101793.97
2022-10-06T11:34:54.884Z,101800.44
2022-10-06T11:37:36.548Z,101803.72
2022-10-06T11:40:24.920Z,101798.59
2022-10-06T11:43:00.351Z,101801.00
2022-10-06T11:45:35.654Z,101799.72
2022-10-06T11:48:21.045Z,101796.28
2022-10-06T11:50:55.225Z,101802.00
2022-10-06T11:53:38.690Z,101797.59
2022-10-06T11:56:24.983Z,101805.44
2022-10-06T11:59:28.646Z,101802.44
2022-10-06T12:02:01.983Z,101806.28
2022-10-06T12:04:31.017Z,101806.59
2022-10-06T12:07:06.915Z,101810.84
2022-10-06T12:09:46.235Z,101811.72
2022-10-06T12:13:06.102Z,101812.16
2022-10-06T12:19:18.744Z,101804.56
2022-10-06T12:21:55.726Z,101806.56
2022-10-06T12:24:37.712Z,101806.25
2022-10-06T12:27:39.119Z,101798.56
2022-10-06T12:30:21.224Z,101809.81
2022-10-06T12:32:57.603Z,101805.59
2022-10-06T12:35:32.005Z,101794.62
2022-10-06T12:38:04.837Z,101803.19
2022-10-06T12:40:54.483Z,101795.56
2022-10-06T12:43:32.467Z,101804.19
2022-10-06T12:46:05.010Z,101813.97
2022-10-06T12:48:43.162Z,101806.63
2022-10-06T12:51:23.285Z,101798.66
2022-10-06T12:54:00.157Z,101801.31
2022-10-06T12:56:32.523Z,101801.19
2022-10-06T12:59:20.822Z,101800.72
2022-10-06T13:01:51.722Z,101798.75
2022-10-06T13:04:37.688Z,101796.03
2022-10-06T13:07:12.526Z,101791.19
2022-10-06T13:09:42.102Z,101794.44
2022-10-06T13:12:30.260Z,101801.41
2022-10-06T13:15:17.520Z,101798.25
2022-10-06T13:17:49.626Z,101801.41
2022-10-06T13:20:21.612Z,101798.31
2022-10-06T13:22:57.827Z,101802.44
2022-10-06T13:25:28.248Z,101799.81
2022-10-06T13:27:57.928Z,101795.75
2022-10-06T13:30:26.729Z,101800.44
2022-10-06T13:32:56.180Z,101796.88
2022-10-06T13:35:26.964Z,101800.53
2022-10-06T13:37:56.368Z,101800.84
2022-10-06T13:40:46.845Z,101803.03
2022-10-06T13:43:20.272Z,101798.59
2022-10-06T13:45:49.461Z,101804.88
2022-10-06T13:48:22.043Z,101804.03
2022-10-06T13:50:53.190Z,101801.19
2022-10-06T13:53:27.973Z,101812.28
2022-10-06T13:55:56.588Z,101812.28
2022-10-06T13:58:30.074Z,101819.97
2022-10-06T14:01:00.877Z,101823.84
2022-10-06T14:06:15.224Z,101815.97
2022-10-06T14:08:47.020Z,101811.84
2022-10-06T14:11:15.261Z,101812.53
2022-10-06T14:13:50.605Z,101810.00
2022-10-06T14:16:25.237Z,101798.84
2022-10-06T14:18:56.877Z,101806.81
2022-10-06T14:21:39.166Z,101802.16
2022-10-06T14:24:23.537Z,101816.94
2022-10-06T14:26:52.171Z,101806.19
2022-10-06T14:29:23.321Z,101819.41
2022-10-06T14:31:51.832Z,101818.69
2022-10-06T14:34:22.112Z,101813.06
2022-10-06T14:36:53.587Z,101799.72
2022-10-06T14:39:22.338Z,101805.25
2022-10-06T14:41:51.232Z,101807.63
2022-10-06T14:44:19.589Z,101811.03
2022-10-06T14:46:50.156Z,101801.69
2022-10-06T14:49:20.479Z,101809.97
2022-10-06T14:51:48.760Z,101801.56
2022-10-06T14:54:17.112Z,101817.16
2022-10-06T14:56:45.839Z,101804.50
2022-10-06T14:59:17.225Z,101807.06
2022-10-06T15:01:46.279Z,101811.84
2022-10-06T15:04:18.810Z,101809.44
2022-10-06T15:07:06.390Z,101809.81
2022-10-06T15:09:35.809Z,101806.41
2022-10-06T15:12:05.251Z,101799.72
2022-10-06T15:14:35.018Z,101796.16
2022-10-06T15:17:04.124Z,101808.06
2022-10-06T15:19:35.069Z,101806.78
2022-10-06T15:22:04.724Z,101806.50
2022-10-06T15:24:33.207Z,101806.31
2022-10-06T15:27:24.577Z,101802.44
2022-10-06T15:29:54.057Z,101810.59
2022-10-06T15:32:22.871Z,101810.16
2022-10-06T15:34:55.318Z,101808.66
2022-10-06T15:37:24.291Z,101808.22
2022-10-06T15:39:53.462Z,101814.25
2022-10-06T15:42:29.207Z,101808.66
2022-10-06T15:45:07.499Z,101809.94
2022-10-06T15:47:36.971Z,101815.84
2022-10-06T15:50:08.592Z,101808.00
2022-10-06T15:52:37.735Z,101811.19
2022-10-06T15:55:07.146Z,101809.44
2022-10-06T15:57:35.878Z,101812.00
2022-10-06T16:00:04.804Z,101818.66
2022-10-06T16:02:41.055Z,101817.47
2022-10-06T16:05:29.227Z,101816.53
2022-10-06T16:07:57.686Z,101816.28
2022-10-06T16:10:26.410Z,101823.66
2022-10-06T16:12:54.942Z,101822.47
2022-10-06T16:15:23.297Z,101827.38
2022-10-06T16:17:51.807Z,101820.75
2022-10-06T16:20:21.730Z,101822.41
2022-10-06T16:22:50.167Z,101818.78
2022-10-06T16:25:19.008Z,101829.47
2022-10-06T16:27:47.489Z,101836.72
2022-10-06T16:30:17.268Z,101831.81
2022-10-06T16:32:48.749Z,101836.97
2022-10-06T16:35:25.310Z,101831.78
2022-10-06T16:37:55.874Z,101825.03
2022-10-06T16:40:26.831Z,101829.00
2022-10-06T16:42:56.176Z,101824.69
2022-10-06T16:45:25.329Z,101828.19
2022-10-06T16:47:53.908Z,101826.31
2022-10-06T16:50:24.089Z,101839.63
2022-10-06T16:52:52.393Z,101837.69
2022-10-06T16:55:20.866Z,101844.00
2022-10-06T16:57:49.721Z,101839.50
2022-10-06T17:00:18.549Z,101850.31
2022-10-06T17:02:47.291Z,101843.66
2022-10-06T17:05:16.303Z,101854.22
2022-10-06T17:07:46.198Z,101855.09
2022-10-06T17:10:20.738Z,101863.69
2022-10-06T17:12:50.087Z,101862.41
2022-10-06T17:15:18.682Z,101866.53
2022-10-06T17:17:50.234Z,101867.16
2022-10-06T17:20:19.175Z,101861.47
2022-10-06T17:22:51.548Z,101865.50
2022-10-06T17:25:28.611Z,101856.16
2022-10-06T17:27:57.477Z,101860.97
2022-10-06T17:30:26.347Z,101866.97
2022-10-06T17:32:55.211Z,101864.72
2022-10-06T17:35:23.706Z,101869.88
2022-10-06T17:37:54.262Z,101869.62
2022-10-06T17:40:24.672Z,101871.09
2022-10-06T17:42:53.416Z,101868.34
2022-10-06T17:45:25.224Z,101871.75
2022-10-06T17:47:54.374Z,101870.53
2022-10-06T17:50:22.843Z,101874.47
2022-10-06T17:52:51.322Z,101885.28
2022-10-06T17:55:23.949Z,101877.75
2022-10-06T17:57:52.521Z,101886.09
2022-10-06T18:00:21.213Z,101881.97
2022-10-06T18:02:50.183Z,101882.66
2022-10-06T18:05:18.849Z,101877.78
2022-10-06T18:07:47.388Z,101881.72
2022-10-06T18:10:33.546Z,101885.75
2022-10-06T18:13:03.132Z,101889.66
2022-10-06T18:15:36.263Z,101888.34
2022-10-06T18:18:05.445Z,101886.03
2022-10-06T18:20:40.078Z,101879.31
2022-10-06T18:23:09.262Z,101876.34
2022-10-06T18:25:37.857Z,101882.44
2022-10-06T18:28:07.590Z,101881.06
2022-10-06T18:30:35.794Z,101884.91
2022-10-06T18:36:09.806Z,101885.28
2022-10-06T18:36:14.637Z,101882.22
2022-10-06T18:38:46.954Z,101880.84
2022-10-06T18:41:17.406Z,101877.66
2022-10-06T18:43:47.481Z,101882.44
2022-10-06T18:46:35.141Z,101886.31
2022-10-06T18:49:10.364Z,101883.00
2022-10-06T18:51:40.073Z,101892.06
2022-10-06T18:54:10.915Z,101893.34
2022-10-06T18:56:39.458Z,101890.53
2022-10-06T18:59:12.242Z,101886.41
2022-10-06T19:01:43.036Z,101894.41
2022-10-06T19:04:14.181Z,101893.75
2022-10-06T19:06:45.278Z,101892.09
2022-10-06T19:09:17.688Z,101903.91
2022-10-06T19:11:53.040Z,101911.13
2022-10-06T19:14:25.003Z,101914.03
2022-10-06T19:16:56.373Z,101907.50
2022-10-06T19:19:25.972Z,101901.66
2022-10-06T19:21:57.218Z,101910.53
2022-10-06T19:24:25.763Z,101910.94
2022-10-06T19:26:56.457Z,101916.62
2022-10-06T19:29:27.135Z,101908.88
2022-10-06T19:31:58.163Z,101913.53
2022-10-06T19:34:27.445Z,101910.31
2022-10-06T19:36:58.127Z,101916.69
2022-10-06T19:39:28.827Z,101920.38
2022-10-06T19:42:30.353Z,101921.50
2022-10-06T19:45:00.482Z,101917.97
2022-10-06T19:47:30.651Z,101915.78
2022-10-06T19:50:03.742Z,101915.16
2022-10-06T19:52:34.841Z,101922.38
2022-10-06T19:55:03.493Z,101923.50
2022-10-06T19:57:32.614Z,101924.59
2022-10-06T20:00:05.317Z,101930.28
2022-10-06T20:02:43.927Z,101921.59
2022-10-06T20:05:17.405Z,101913.03
2022-10-06T20:07:47.951Z,101920.25
2022-10-06T20:10:16.811Z,101928.19
2022-10-06T20:12:45.129Z,101937.03
2022-10-06T20:15:15.321Z,101925.59
2022-10-06T20:17:45.658Z,101931.37
2022-10-06T20:20:15.289Z,101924.91
2022-10-06T20:22:44.089Z,101927.81
2022-10-06T20:25:12.393Z,101929.00
2022-10-06T20:27:40.912Z,101924.69
2022-10-06T20:30:10.776Z,101929.16
2022-10-06T20:32:40.410Z,101920.38
2022-10-06T20:35:09.594Z,101917.87
2022-10-06T20:37:42.189Z,101919.72
2022-10-06T20:40:28.909Z,101922.56
2022-10-06T20:42:59.511Z,101918.47
2022-10-06T20:45:27.968Z,101917.06
2022-10-06T20:47:58.227Z,101916.81
2022-10-06T20:50:27.196Z,101909.69
2022-10-06T20:52:57.554Z,101919.56
2022-10-06T20:55:26.410Z,101923.09
2022-10-06T20:57:56.224Z,101922.53
2022-10-06T21:00:25.709Z,101911.41
2022-10-06T21:02:54.309Z,101909.66
2022-10-06T21:05:24.463Z,101918.50
2022-10-06T21:07:52.878Z,101902.75
2022-10-06T21:10:21.372Z,101922.50
2022-10-06T21:12:50.227Z,101914.03
2022-10-06T21:15:18.718Z,101908.97
2022-10-06T21:17:48.498Z,101903.97
2022-10-06T21:20:17.668Z,101911.00
2022-10-06T21:22:47.551Z,101906.62
2022-10-06T21:25:16.293Z,101910.28
2022-10-06T21:27:47.342Z,101910.34
2022-10-06T21:30:16.149Z,101909.56
2022-10-06T21:32:45.284Z,101914.13
2022-10-06T21:35:13.831Z,101910.78
2022-10-06T21:37:42.831Z,101908.28
2022-10-06T21:40:14.055Z,101904.87
2022-10-06T21:42:44.401Z,101898.72
2022-10-06T21:45:13.168Z,101904.13
2022-10-06T21:47:41.982Z,101898.88
2022-10-06T21:50:10.988Z,101899.97
2022-10-06T21:52:39.883Z,101890.63
2022-10-06T21:55:08.757Z,101896.88
2022-10-06T21:57:38.476Z,101895.34
2022-10-06T22:00:11.227Z,101897.47
2022-10-06T22:02:41.369Z,101897.72
2022-10-06T22:05:10.582Z,101888.81
2022-10-06T22:07:38.993Z,101893.97
2022-10-06T22:10:08.138Z,101893.97
2022-10-06T22:12:38.365Z,101888.53
2022-10-06T22:15:07.832Z,101901.03
2022-10-06T22:17:36.259Z,101883.06
2022-10-06T22:20:05.593Z,101887.44
2022-10-06T22:22:34.054Z,101888.47
2022-10-06T22:25:02.398Z,101892.75
2022-10-06T22:27:31.434Z,101888.09
2022-10-06T22:30:01.252Z,101878.25
2022-10-06T22:32:29.909Z,101887.81
2022-10-06T22:34:58.863Z,101878.88
2022-10-06T22:37:27.356Z,101892.06
2022-10-06T22:39:56.015Z,101891.06
2022-10-06T22:42:24.911Z,101885.81
2022-10-06T22:44:53.319Z,101885.13
2022-10-06T22:47:23.276Z,101878.94
2022-10-06T22:49:52.008Z,101870.09
2022-10-06T22:52:21.330Z,101872.84
2022-10-06T22:54:49.750Z,101876.28
2022-10-06T22:57:18.649Z,101876.28
2022-10-06T22:59:47.097Z,101868.22
2022-10-06T23:02:15.602Z,101871.75
2022-10-06T23:04:45.641Z,101874.34
2022-10-06T23:07:14.415Z,101873.44
2022-10-06T23:09:42.928Z,101868.97
2022-10-06T23:12:11.688Z,101859.16
2022-10-06T23:14:40.176Z,101864.34
2022-10-06T23:17:08.737Z,101865.28
2022-10-06T23:19:37.571Z,101861.75
2022-10-06T23:22:07.425Z,101859.16
2022-10-06T23:24:35.764Z,101865.44
2022-10-06T23:27:07.355Z,101864.63
2022-10-06T23:29:35.764Z,101871.81
2022-10-06T23:32:04.610Z,101859.53
2022-10-06T23:34:33.070Z,101852.56
2022-10-06T23:37:01.770Z,101857.28
2022-10-06T23:39:31.897Z,101851.53
2022-10-06T23:42:00.884Z,101850.81
2022-10-06T23:44:29.723Z,101855.28
2022-10-06T23:46:58.905Z,101852.62
2022-10-06T23:49:27.327Z,101858.94
2022-10-06T23:51:56.111Z,101855.56
2022-10-06T23:54:24.503Z,101858.44
2022-10-06T23:56:55.836Z,101853.97
2022-10-06T23:59:26.413Z,101857.69
